Time;durP1;ratioP1;P1;durP2;ratioP2;P2;SDS_P1;SDS_P2;PMS_P1;PMS_P2;Temp;Humidity;BMP_temperature;BMP_pressure;BME280_temperature;BME280_humidity;BME280_pressure;Samples;Min_cycle;Max_cycle;Signal;HPM_P1;HPM_P2
2022/06/26 00:00:08;;;;;;;;;;;14.20;99.90;;;;;;5080406;28;20331;-61
2022/06/26 00:02:34;;;;;;;;;;;14.20;99.90;;;;;;5080575;28;20648;-59
2022/06/26 00:05:00;;;;;;;;;;;14.10;99.90;;;;;;5081539;28;19970;-60
2022/06/26 00:07:26;;;;;;;;;;;14.00;99.90;;;;;;5085037;28;19916;-60
2022/06/26 00:09:51;;;;;;;;;;;13.90;99.90;;;;;;5083228;28;19977;-62
2022/06/26 00:12:17;;;;;;;;;;;14.00;99.90;;;;;;5081762;28;19999;-61
2022/06/26 00:14:42;;;;;;;;;;;14.10;99.90;;;;;;5081203;28;20339;-62
2022/06/26 00:17:08;;;;;;;;;;;13.90;99.90;;;;;;5082334;28;22645;-62
2022/06/26 00:19:34;;;;;;;;;;;13.70;99.90;;;;;;5082135;28;19919;-61
2022/06/26 00:21:59;;;;;;;;;;;13.60;99.90;;;;;;5061577;28;19989;-62
2022/06/26 00:24:25;;;;;;;;;;;13.50;99.90;;;;;;5081309;28;19912;-61
2022/06/26 00:26:54;;;;;;;;;;;13.40;99.90;;;;;;5081734;28;19912;-60
2022/06/26 00:29:19;;;;;;;;;;;13.30;99.90;;;;;;5083090;28;19916;-61
2022/06/26 00:31:45;;;;;;;;;;;13.20;99.90;;;;;;5083003;28;19919;-61
2022/06/26 00:34:10;;;;;;;;;;;13.20;99.90;;;;;;5084829;28;19947;-60
2022/06/26 00:36:36;;;;;;;;;;;13.20;99.90;;;;;;5064637;28;19912;-61
2022/06/26 00:39:01;;;;;;;;;;;13.10;99.90;;;;;;5086116;28;19996;-61
2022/06/26 00:41:27;;;;;;;;;;;13.10;99.90;;;;;;5087168;28;19928;-61
2022/06/26 00:43:53;;;;;;;;;;;13.10;99.90;;;;;;5087910;28;19923;-59
2022/06/26 00:46:18;;;;;;;;;;;13.00;99.90;;;;;;5084443;28;19973;-61
2022/06/26 00:48:44;;;;;;;;;;;13.00;99.90;;;;;;5086602;28;20292;-60
2022/06/26 00:51:09;;;;;;;;;;;12.90;99.90;;;;;;5085736;28;20357;-61
2022/06/26 00:53:35;;;;;;;;;;;12.90;99.90;;;;;;5086335;28;19966;-61
2022/06/26 00:56:01;;;;;;;;;;;12.90;99.90;;;;;;5086500;28;20071;-59
2022/06/26 00:58:27;;;;;;;;;;;12.90;99.90;;;;;;5083172;28;19912;-60
2022/06/26 01:00:53;;;;;;;;;;;12.90;99.90;;;;;;5081721;28;20394;-61
2022/06/26 01:03:18;;;;;;;;;;;12.90;99.90;;;;;;5084954;28;19939;-60
2022/06/26 01:05:44;;;;;;;;;;;12.80;99.90;;;;;;5081636;28;19912;-61
2022/06/26 01:08:12;;;;;;;;;;;12.90;99.90;;;;;;5055647;28;19913;-60
2022/06/26 01:10:38;;;;;;;;;;;12.80;99.90;;;;;;5085565;28;19980;-61
2022/06/26 01:13:04;;;;;;;;;;;12.80;99.90;;;;;;5076083;28;20355;-61
2022/06/26 01:15:29;;;;;;;;;;;12.80;99.90;;;;;;5080391;28;20331;-60
2022/06/26 01:17:55;;;;;;;;;;;12.70;99.90;;;;;;5082197;28;19920;-60
2022/06/26 01:20:21;;;;;;;;;;;12.80;99.90;;;;;;5076834;28;20003;-61
2022/06/26 01:22:55;;;;;;;;;;;12.70;99.90;;;;;;5086544;28;19920;-61
2022/06/26 01:25:21;;;;;;;;;;;12.80;99.90;;;;;;5078660;28;19916;-61
2022/06/26 01:27:46;;;;;;;;;;;12.80;99.90;;;;;;5056760;28;20320;-61
2022/06/26 01:30:12;;;;;;;;;;;12.80;99.90;;;;;;5083864;28;20445;-61
2022/06/26 01:32:38;;;;;;;;;;;12.80;99.90;;;;;;5078944;28;20019;-60
2022/06/26 01:35:04;;;;;;;;;;;12.70;99.90;;;;;;5077448;28;19920;-61
2022/06/26 01:37:29;;;;;;;;;;;12.80;99.90;;;;;;5081626;28;20061;-61
2022/06/26 01:39:55;;;;;;;;;;;12.70;99.90;;;;;;5079414;28;20003;-62
2022/06/26 01:42:20;;;;;;;;;;;12.70;99.90;;;;;;5077435;28;19920;-60
2022/06/26 01:44:46;;;;;;;;;;;12.80;99.90;;;;;;5082297;28;19916;-61
2022/06/26 01:47:12;;;;;;;;;;;12.80;99.90;;;;;;5080426;28;19921;-61
2022/06/26 01:49:37;;;;;;;;;;;12.80;99.90;;;;;;5079972;28;20285;-60
2022/06/26 01:52:03;;;;;;;;;;;12.80;99.90;;;;;;5081013;28;19972;-61
2022/06/26 01:54:29;;;;;;;;;;;12.70;99.90;;;;;;5086148;28;19919;-60
2022/06/26 01:56:54;;;;;;;;;;;12.70;99.90;;;;;;5082040;28;19916;-60
2022/06/26 01:59:20;;;;;;;;;;;12.80;99.90;;;;;;5081600;28;20324;-61
2022/06/26 02:01:46;;;;;;;;;;;12.80;99.90;;;;;;5088426;28;19924;-61
2022/06/26 02:04:16;;;;;;;;;;;12.80;99.90;;;;;;5082641;28;19916;-61
2022/06/26 02:06:42;;;;;;;;;;;12.90;99.90;;;;;;5086247;28;19913;-61
2022/06/26 02:13:35;;;;;;;;;;;12.90;99.90;;;;;;5082828;28;19966;-61
2022/06/26 02:14:37;;;;;;;;;;;12.80;99.90;;;;;;5089201;28;19923;-61
2022/06/26 02:17:02;;;;;;;;;;;12.80;99.90;;;;;;5086930;28;19919;-62
2022/06/26 02:19:28;;;;;;;;;;;12.80;99.90;;;;;;5083035;28;19997;-61
2022/06/26 02:21:53;;;;;;;;;;;12.70;99.90;;;;;;5080112;28;19974;-62
2022/06/26 02:24:19;;;;;;;;;;;12.60;99.90;;;;;;5088715;28;20321;-61
2022/06/26 02:26:45;;;;;;;;;;;12.60;99.90;;;;;;5084256;28;20448;-59
2022/06/26 02:29:10;;;;;;;;;;;12.60;99.90;;;;;;5082160;28;20327;-61
2022/06/26 02:31:36;;;;;;;;;;;12.60;99.90;;;;;;5084853;28;20408;-59
2022/06/26 02:34:01;;;;;;;;;;;12.70;99.90;;;;;;5083935;28;20427;-60
2022/06/26 02:36:27;;;;;;;;;;;12.70;99.90;;;;;;5082340;28;19958;-61
2022/06/26 02:38:52;;;;;;;;;;;12.60;99.90;;;;;;5080612;28;19958;-60
2022/06/26 02:41:18;;;;;;;;;;;12.60;99.90;;;;;;5087984;28;20296;-60
2022/06/26 02:43:43;;;;;;;;;;;12.70;99.90;;;;;;5085359;28;20338;-60
2022/06/26 02:46:10;;;;;;;;;;;12.80;99.90;;;;;;5060806;28;20003;-61
2022/06/26 02:48:35;;;;;;;;;;;12.80;99.90;;;;;;5086847;28;19912;-60
2022/06/26 02:51:01;;;;;;;;;;;12.80;99.90;;;;;;5066213;28;19912;-60
2022/06/26 02:53:26;;;;;;;;;;;12.70;99.90;;;;;;5083425;28;19919;-61
2022/06/26 02:55:52;;;;;;;;;;;12.70;99.90;;;;;;5084839;28;19920;-61
2022/06/26 02:58:17;;;;;;;;;;;12.70;99.90;;;;;;5084662;28;20057;-61
2022/06/26 03:00:43;;;;;;;;;;;12.70;99.90;;;;;;5082074;28;20297;-61
2022/06/26 03:03:08;;;;;;;;;;;12.80;99.90;;;;;;5088223;28;19919;-61
2022/06/26 03:05:34;;;;;;;;;;;12.80;99.90;;;;;;5080053;28;19920;-62
2022/06/26 03:08:00;;;;;;;;;;;12.80;99.90;;;;;;5065397;28;19935;-60
2022/06/26 03:10:25;;;;;;;;;;;12.70;99.90;;;;;;5089154;28;20022;-61
2022/06/26 03:12:51;;;;;;;;;;;12.70;99.90;;;;;;5085736;28;19916;-61
2022/06/26 03:15:17;;;;;;;;;;;12.80;99.90;;;;;;5080560;28;19913;-61
2022/06/26 03:17:43;;;;;;;;;;;12.80;99.90;;;;;;5079223;28;19950;-60
2022/06/26 03:20:10;;;;;;;;;;;12.80;99.90;;;;;;5084516;28;19913;-60
2022/06/26 03:22:35;;;;;;;;;;;12.80;99.90;;;;;;5085467;28;19940;-61
2022/06/26 03:25:01;;;;;;;;;;;12.80;99.90;;;;;;5086024;28;20405;-60
2022/06/26 03:27:27;;;;;;;;;;;12.80;99.90;;;;;;5084197;28;20003;-60
2022/06/26 03:29:52;;;;;;;;;;;12.80;99.90;;;;;;5077714;28;19912;-61
2022/06/26 03:32:18;;;;;;;;;;;12.80;99.90;;;;;;5085348;28;20017;-60
2022/06/26 03:34:43;;;;;;;;;;;12.80;99.90;;;;;;5083380;28;20396;-61
2022/06/26 03:37:09;;;;;;;;;;;12.80;99.90;;;;;;5084701;28;19987;-61
2022/06/26 03:39:34;;;;;;;;;;;12.90;99.90;;;;;;5086123;28;19912;-61
2022/06/26 03:42:01;;;;;;;;;;;12.90;99.90;;;;;;5079413;28;19928;-60
2022/06/26 03:44:27;;;;;;;;;;;12.90;99.90;;;;;;5079953;28;20144;-60
2022/06/26 03:46:53;;;;;;;;;;;12.90;99.90;;;;;;5084595;28;19920;-60
2022/06/26 03:49:19;;;;;;;;;;;13.00;99.90;;;;;;5083411;28;19959;-60
2022/06/26 03:51:44;;;;;;;;;;;13.10;99.90;;;;;;5081196;28;19912;-61
2022/06/26 03:54:10;;;;;;;;;;;13.00;99.90;;;;;;5086549;28;19916;-61
2022/06/26 03:56:37;;;;;;;;;;;13.10;99.90;;;;;;5083202;28;20416;-60
2022/06/26 03:59:02;;;;;;;;;;;13.10;99.90;;;;;;5080846;28;19928;-60
2022/06/26 04:01:28;;;;;;;;;;;13.20;99.90;;;;;;5082516;28;19920;-61
2022/06/26 04:03:53;;;;;;;;;;;13.20;99.90;;;;;;5077512;28;19955;-60
2022/06/26 04:06:19;;;;;;;;;;;13.30;99.90;;;;;;5086780;28;20546;-61
2022/06/26 04:08:45;;;;;;;;;;;13.30;99.90;;;;;;5085255;28;19920;-60
2022/06/26 04:11:10;;;;;;;;;;;13.30;99.90;;;;;;5085734;28;19969;-61
2022/06/26 04:13:36;;;;;;;;;;;13.40;99.90;;;;;;5078766;28;19999;-61
2022/06/26 04:16:01;;;;;;;;;;;13.40;99.90;;;;;;5083602;28;20001;-60
2022/06/26 04:18:27;;;;;;;;;;;13.50;99.90;;;;;;5076816;28;19923;-60
2022/06/26 04:20:52;;;;;;;;;;;13.40;99.90;;;;;;5081258;28;20282;-65
2022/06/26 04:23:18;;;;;;;;;;;13.30;99.90;;;;;;5082858;28;19939;-61
2022/06/26 04:25:44;;;;;;;;;;;13.30;99.90;;;;;;5079025;28;19912;-61
2022/06/26 04:28:10;;;;;;;;;;;13.40;99.90;;;;;;5078972;28;20003;-62
2022/06/26 04:30:35;;;;;;;;;;;13.40;99.90;;;;;;5080182;28;19955;-60
2022/06/26 04:33:01;;;;;;;;;;;13.50;99.90;;;;;;5082624;28;19956;-61
2022/06/26 04:35:27;;;;;;;;;;;13.50;99.90;;;;;;5081676;28;19912;-61
2022/06/26 04:37:52;;;;;;;;;;;13.50;99.90;;;;;;5078058;28;19912;-61
2022/06/26 04:40:18;;;;;;;;;;;13.60;99.90;;;;;;5081896;28;20327;-60
2022/06/26 04:42:43;;;;;;;;;;;13.50;99.90;;;;;;5079497;28;19923;-61
2022/06/26 04:45:10;;;;;;;;;;;13.60;99.90;;;;;;5078485;28;19912;-61
2022/06/26 04:47:36;;;;;;;;;;;13.50;99.90;;;;;;5086192;28;19951;-61
2022/06/26 04:50:02;;;;;;;;;;;13.60;99.90;;;;;;5077065;28;20012;-61
2022/06/26 04:52:27;;;;;;;;;;;13.60;99.90;;;;;;5084349;28;19912;-60
2022/06/26 04:54:53;;;;;;;;;;;13.70;99.90;;;;;;5081423;28;19913;-59
2022/06/26 04:57:18;;;;;;;;;;;13.60;99.90;;;;;;5083042;28;19927;-60
2022/06/26 04:59:44;;;;;;;;;;;13.70;99.90;;;;;;5076593;28;19947;-61
2022/06/26 05:02:10;;;;;;;;;;;13.70;99.90;;;;;;5082391;28;20415;-60
2022/06/26 05:04:36;;;;;;;;;;;13.70;99.90;;;;;;5085924;28;19912;-59
2022/06/26 05:07:02;;;;;;;;;;;13.60;99.90;;;;;;5080882;28;19920;-61
2022/06/26 05:09:28;;;;;;;;;;;13.60;99.90;;;;;;5085201;28;20308;-60
2022/06/26 05:11:54;;;;;;;;;;;13.50;99.90;;;;;;5081296;28;20468;-60
2022/06/26 05:14:20;;;;;;;;;;;13.50;99.90;;;;;;5080558;28;19924;-60
2022/06/26 05:16:45;;;;;;;;;;;13.50;99.90;;;;;;5084823;28;20362;-61
2022/06/26 05:19:11;;;;;;;;;;;13.50;99.90;;;;;;5082831;28;19920;-62
2022/06/26 05:21:37;;;;;;;;;;;13.50;99.90;;;;;;5082053;28;19928;-60
2022/06/26 05:24:03;;;;;;;;;;;13.60;99.90;;;;;;5080173;28;19916;-61
2022/06/26 05:26:28;;;;;;;;;;;13.70;99.90;;;;;;5084902;28;19920;-61
2022/06/26 05:28:54;;;;;;;;;;;13.80;99.90;;;;;;5091532;28;19912;-61
2022/06/26 05:31:19;;;;;;;;;;;13.80;99.90;;;;;;5091479;28;19920;-61
2022/06/26 05:33:45;;;;;;;;;;;14.00;99.90;;;;;;5073114;28;19912;-61
2022/06/26 05:36:11;;;;;;;;;;;14.10;99.90;;;;;;5085103;28;19987;-60
2022/06/26 05:38:37;;;;;;;;;;;14.10;99.90;;;;;;5083661;28;20380;-61
2022/06/26 05:41:03;;;;;;;;;;;14.10;99.90;;;;;;5088425;28;19920;-61
2022/06/26 05:43:29;;;;;;;;;;;14.20;99.90;;;;;;5089736;28;19916;-60
2022/06/26 05:45:54;;;;;;;;;;;14.30;99.90;;;;;;5083281;28;19959;-60
2022/06/26 05:48:20;;;;;;;;;;;14.30;99.90;;;;;;5074489;28;19919;-60
2022/06/26 05:50:45;;;;;;;;;;;14.30;99.90;;;;;;5091800;28;19912;-61
2022/06/26 05:53:11;;;;;;;;;;;14.20;99.90;;;;;;5074968;28;19947;-62
2022/06/26 05:55:38;;;;;;;;;;;14.10;99.90;;;;;;5087178;28;19935;-61
2022/06/26 05:58:07;;;;;;;;;;;14.00;99.90;;;;;;5083629;28;19920;-61
2022/06/26 06:00:33;;;;;;;;;;;13.90;99.90;;;;;;5080438;28;19920;-61
2022/06/26 06:02:59;;;;;;;;;;;13.90;99.90;;;;;;5090106;28;19920;-60
2022/06/26 06:05:25;;;;;;;;;;;13.80;99.90;;;;;;5085253;28;19936;-59
2022/06/26 06:07:51;;;;;;;;;;;13.80;99.90;;;;;;5079211;28;19912;-61
2022/06/26 06:10:19;;;;;;;;;;;13.80;99.90;;;;;;5093921;28;19912;-61
2022/06/26 06:12:48;;;;;;;;;;;13.90;99.90;;;;;;5086215;28;19919;-62
2022/06/26 06:15:13;;;;;;;;;;;13.90;99.90;;;;;;5067353;28;19920;-60
2022/06/26 06:17:42;;;;;;;;;;;14.00;99.90;;;;;;5074218;28;20031;-61
2022/06/26 06:20:08;;;;;;;;;;;14.00;99.90;;;;;;5085693;28;19912;-61
2022/06/26 06:22:33;;;;;;;;;;;14.10;99.90;;;;;;5084801;28;20395;-61
2022/06/26 06:24:59;;;;;;;;;;;14.30;99.90;;;;;;5080498;28;20229;-60
2022/06/26 06:27:24;;;;;;;;;;;14.40;99.90;;;;;;5092940;28;19916;-61
2022/06/26 06:29:50;;;;;;;;;;;14.50;99.90;;;;;;5085850;28;20395;-61
2022/06/26 06:32:15;;;;;;;;;;;14.60;99.90;;;;;;5084408;28;20376;-60
2022/06/26 06:34:41;;;;;;;;;;;14.80;99.90;;;;;;5085318;28;19918;-60
2022/06/26 06:37:06;;;;;;;;;;;15.00;99.90;;;;;;5089121;28;20106;-61
2022/06/26 06:39:32;;;;;;;;;;;15.10;99.90;;;;;;5082768;28;19913;-61
2022/06/26 06:41:58;;;;;;;;;;;15.20;99.90;;;;;;5086061;28;19994;-61
2022/06/26 06:44:23;;;;;;;;;;;15.40;99.90;;;;;;5080502;28;19912;-60
2022/06/26 06:46:49;;;;;;;;;;;15.50;99.90;;;;;;5066828;28;19963;-60
2022/06/26 06:49:15;;;;;;;;;;;15.40;99.90;;;;;;5081876;28;20411;-61
2022/06/26 06:51:43;;;;;;;;;;;15.20;99.90;;;;;;5074733;28;19916;-60
2022/06/26 06:54:09;;;;;;;;;;;15.10;99.90;;;;;;5081667;28;19912;-61
2022/06/26 06:56:34;;;;;;;;;;;15.00;99.90;;;;;;5082183;28;20369;-61
2022/06/26 06:59:00;;;;;;;;;;;14.90;99.90;;;;;;5079892;28;19912;-61
2022/06/26 07:01:26;;;;;;;;;;;14.90;99.90;;;;;;5083193;28;19924;-61
2022/06/26 07:03:51;;;;;;;;;;;15.00;99.90;;;;;;5080863;28;19920;-61
2022/06/26 07:06:17;;;;;;;;;;;15.00;99.90;;;;;;5079419;28;19912;-61
2022/06/26 07:08:43;;;;;;;;;;;15.00;99.90;;;;;;5080873;28;19913;-61
2022/06/26 07:11:08;;;;;;;;;;;15.10;99.90;;;;;;5083310;28;19920;-61
2022/06/26 07:13:34;;;;;;;;;;;15.20;99.90;;;;;;5081604;28;19998;-60
2022/06/26 07:15:59;;;;;;;;;;;15.20;99.90;;;;;;5077873;28;19916;-61
2022/06/26 07:18:25;;;;;;;;;;;15.30;99.90;;;;;;5081314;28;20317;-62
2022/06/26 07:20:51;;;;;;;;;;;15.40;99.90;;;;;;5085622;28;19924;-61
2022/06/26 07:23:16;;;;;;;;;;;15.60;99.90;;;;;;5083661;28;19916;-61
2022/06/26 07:25:42;;;;;;;;;;;15.70;99.90;;;;;;5038016;28;19963;-61
2022/06/26 07:28:08;;;;;;;;;;;15.70;99.90;;;;;;5082119;28;20370;-62
2022/06/26 07:30:34;;;;;;;;;;;15.90;99.90;;;;;;5083943;28;19919;-62
2022/06/26 07:33:03;;;;;;;;;;;15.90;99.90;;;;;;5080856;28;19912;-62
2022/06/26 07:35:30;;;;;;;;;;;15.90;99.90;;;;;;5084000;28;19916;-59
2022/06/26 07:37:56;;;;;;;;;;;16.00;99.90;;;;;;5065083;28;19929;-61
2022/06/26 07:40:21;;;;;;;;;;;16.10;99.90;;;;;;5081481;28;19916;-61
2022/06/26 07:42:47;;;;;;;;;;;16.10;99.90;;;;;;5084028;28;19969;-61
2022/06/26 07:45:12;;;;;;;;;;;16.30;99.90;;;;;;5083188;28;20350;-61
2022/06/26 07:47:38;;;;;;;;;;;16.40;99.90;;;;;;5077467;28;19918;-61
2022/06/26 07:50:04;;;;;;;;;;;16.40;99.90;;;;;;5080370;28;19923;-61
2022/06/26 07:52:29;;;;;;;;;;;16.40;99.90;;;;;;5082933;28;20388;-61
2022/06/26 07:54:55;;;;;;;;;;;16.60;99.90;;;;;;5081292;28;19967;-63
2022/06/26 07:57:20;;;;;;;;;;;16.80;99.90;;;;;;5078877;28;19919;-61
2022/06/26 07:59:46;;;;;;;;;;;17.10;99.90;;;;;;5084049;28;19957;-61
2022/06/26 08:02:11;;;;;;;;;;;17.30;99.90;;;;;;5080842;28;20041;-63
2022/06/26 08:04:37;;;;;;;;;;;17.30;99.90;;;;;;5079441;28;19967;-69
2022/06/26 08:07:03;;;;;;;;;;;17.20;99.90;;;;;;5081973;28;20289;-60
2022/06/26 08:09:29;;;;;;;;;;;17.30;99.90;;;;;;5086348;28;19912;-61
2022/06/26 08:11:54;;;;;;;;;;;17.50;99.90;;;;;;5062917;28;20011;-60
2022/06/26 08:14:20;;;;;;;;;;;17.50;99.90;;;;;;5076779;28;20372;-59
2022/06/26 08:16:45;;;;;;;;;;;17.50;99.90;;;;;;5083581;28;19917;-58
2022/06/26 08:19:11;;;;;;;;;;;17.50;99.90;;;;;;5077735;28;19920;-59
2022/06/26 08:24:21;;;;;;;;;;;17.60;99.90;;;;;;5083606;28;19934;-58
2022/06/26 08:26:47;;;;;;;;;;;17.40;99.90;;;;;;5075357;28;19916;-58
2022/06/26 08:29:13;;;;;;;;;;;17.40;99.90;;;;;;5082292;28;19912;-60
2022/06/26 08:31:38;;;;;;;;;;;17.60;99.90;;;;;;5079672;28;19942;-60
2022/06/26 08:34:04;;;;;;;;;;;17.70;99.90;;;;;;5079731;28;19948;-59
2022/06/26 08:36:29;;;;;;;;;;;18.00;99.90;;;;;;5061179;28;19934;-59
2022/06/26 08:38:55;;;;;;;;;;;18.10;99.90;;;;;;5073060;28;20285;-60
2022/06/26 08:41:25;;;;;;;;;;;18.10;99.90;;;;;;5082316;28;20015;-59
2022/06/26 08:43:51;;;;;;;;;;;18.30;99.90;;;;;;5060584;28;19919;-60
2022/06/26 08:46:19;;;;;;;;;;;18.10;99.90;;;;;;5066543;28;19959;-59
2022/06/26 08:48:47;;;;;;;;;;;17.80;99.90;;;;;;5083027;28;19944;-61
2022/06/26 08:51:13;;;;;;;;;;;18.00;99.90;;;;;;5080854;28;19913;-58
2022/06/26 08:53:39;;;;;;;;;;;17.80;99.90;;;;;;5078516;28;19919;-58
2022/06/26 08:56:05;;;;;;;;;;;17.60;99.90;;;;;;5082116;28;19912;-60
2022/06/26 08:58:31;;;;;;;;;;;17.60;99.90;;;;;;5083143;28;19919;-60
2022/06/26 09:00:56;;;;;;;;;;;17.70;99.90;;;;;;5082787;28;19921;-60
2022/06/26 09:03:22;;;;;;;;;;;17.80;99.90;;;;;;5079692;28;19955;-60
2022/06/26 09:05:47;;;;;;;;;;;18.20;99.90;;;;;;5073976;28;19912;-58
2022/06/26 09:08:18;;;;;;;;;;;18.10;99.90;;;;;;5078049;28;19916;-60
2022/06/26 09:10:47;;;;;;;;;;;18.00;99.90;;;;;;5075916;28;20337;-61
2022/06/26 09:13:13;;;;;;;;;;;18.10;99.90;;;;;;5056004;28;20420;-59
2022/06/26 09:15:40;;;;;;;;;;;17.50;99.90;;;;;;5059494;28;21482;-60
2022/06/26 09:18:06;;;;;;;;;;;17.90;99.90;;;;;;5076278;28;19925;-59
2022/06/26 09:20:33;;;;;;;;;;;18.40;99.90;;;;;;5077342;28;19920;-60
2022/06/26 09:22:59;;;;;;;;;;;18.60;99.90;;;;;;5076615;28;19922;-61
2022/06/26 09:25:35;;;;;;;;;;;18.70;99.90;;;;;;5072594;28;19978;-60
2022/06/26 09:28:07;;;;;;;;;;;18.70;99.90;;;;;;5072700;28;20259;-60
2022/06/26 09:30:33;;;;;;;;;;;18.80;99.90;;;;;;5073268;28;19951;-60
2022/06/26 09:33:00;;;;;;;;;;;19.00;99.90;;;;;;5053796;28;20003;-60
2022/06/26 09:35:26;;;;;;;;;;;19.10;99.90;;;;;;5077792;28;19982;-60
2022/06/26 09:37:52;;;;;;;;;;;19.50;99.90;;;;;;5078077;28;19920;-58
2022/06/26 09:40:17;;;;;;;;;;;19.30;99.90;;;;;;5083346;28;20630;-60
2022/06/26 09:42:43;;;;;;;;;;;19.50;99.90;;;;;;5085558;28;19926;-59
2022/06/26 09:45:09;;;;;;;;;;;19.10;99.90;;;;;;5075357;28;20031;-58
2022/06/26 09:47:35;;;;;;;;;;;19.00;99.90;;;;;;5086141;28;19934;-60
2022/06/26 09:50:02;;;;;;;;;;;18.70;99.90;;;;;;5066724;28;20374;-60
2022/06/26 09:52:30;;;;;;;;;;;18.90;99.90;;;;;;5067239;28;20328;-59
2022/06/26 09:54:56;;;;;;;;;;;18.50;99.90;;;;;;5085679;28;19922;-61
2022/06/26 09:57:22;;;;;;;;;;;18.60;99.90;;;;;;5087070;28;19919;-61
2022/06/26 09:59:48;;;;;;;;;;;18.90;99.90;;;;;;5083683;28;20003;-60
2022/06/26 10:07:47;;;;;;;;;;;19.20;99.90;;;;;;5085625;28;19942;-60
2022/06/26 10:10:13;;;;;;;;;;;19.60;99.90;;;;;;5068991;28;20036;-61
2022/06/26 10:12:39;;;;;;;;;;;19.90;99.90;;;;;;5086426;28;20327;-61
2022/06/26 10:15:06;;;;;;;;;;;20.20;97.00;;;;;;5087985;28;20423;-60
2022/06/26 10:18:10;;;;;;;;;;;20.30;94.10;;;;;;5066090;28;20027;-59
2022/06/26 10:20:36;;;;;;;;;;;20.10;91.40;;;;;;5027553;28;19917;-60
2022/06/26 10:23:02;;;;;;;;;;;20.10;91.60;;;;;;5024963;28;19943;-62
2022/06/26 10:25:29;;;;;;;;;;;20.30;90.00;;;;;;5056693;28;20326;-61
2022/06/26 10:27:55;;;;;;;;;;;20.40;90.50;;;;;;5089756;28;19962;-59
2022/06/26 10:30:22;;;;;;;;;;;20.00;90.20;;;;;;5081609;28;20024;-61
2022/06/26 10:33:05;;;;;;;;;;;19.80;91.00;;;;;;5064977;28;19951;-60
2022/06/26 10:35:38;;;;;;;;;;;19.80;92.20;;;;;;5088184;28;20000;-60
2022/06/26 10:38:16;;;;;;;;;;;20.20;91.90;;;;;;5088893;28;19931;-61
2022/06/26 10:43:37;;;;;;;;;;;20.10;91.40;;;;;;5089866;28;20313;-60
2022/06/26 10:46:03;;;;;;;;;;;20.20;91.80;;;;;;5089533;28;19919;-61
2022/06/26 10:48:29;;;;;;;;;;;20.10;91.20;;;;;;5086347;28;19912;-61
2022/06/26 10:50:55;;;;;;;;;;;20.00;91.00;;;;;;5085376;28;19918;-60
2022/06/26 10:53:25;;;;;;;;;;;20.20;91.10;;;;;;5088790;28;19961;-60
2022/06/26 10:56:00;;;;;;;;;;;20.20;90.00;;;;;;5085743;28;20012;-61
2022/06/26 10:58:28;;;;;;;;;;;20.00;90.70;;;;;;5076201;28;19927;-60
2022/06/26 11:00:55;;;;;;;;;;;20.00;90.00;;;;;;5077425;28;19939;-60
2022/06/26 11:03:21;;;;;;;;;;;19.70;87.40;;;;;;5086914;28;19923;-61
2022/06/26 11:05:50;;;;;;;;;;;19.40;89.20;;;;;;5087269;28;20019;-61
2022/06/26 11:08:45;;;;;;;;;;;19.50;90.00;;;;;;5087817;28;19954;-61
2022/06/26 11:11:14;;;;;;;;;;;19.50;88.40;;;;;;5052977;28;19912;-63
2022/06/26 11:13:49;;;;;;;;;;;19.60;89.60;;;;;;5083130;28;19920;-59
2022/06/26 11:16:14;;;;;;;;;;;19.90;88.60;;;;;;5068110;28;19920;-60
2022/06/26 11:18:40;;;;;;;;;;;20.20;87.10;;;;;;5084530;28;20351;-60
2022/06/26 11:21:05;;;;;;;;;;;19.90;86.10;;;;;;5091384;28;19927;-61
2022/06/26 11:23:34;;;;;;;;;;;19.60;86.10;;;;;;5089889;28;20465;-61
2022/06/26 11:26:04;;;;;;;;;;;19.60;87.90;;;;;;5066330;28;20231;-61
2022/06/26 11:28:34;;;;;;;;;;;19.90;87.60;;;;;;5083754;28;19920;-60
2022/06/26 11:31:00;;;;;;;;;;;20.00;85.70;;;;;;5084750;28;19912;-60
2022/06/26 11:33:30;;;;;;;;;;;19.90;85.50;;;;;;5089354;28;20012;-61
2022/06/26 11:36:00;;;;;;;;;;;20.00;85.50;;;;;;5086068;28;19912;-60
2022/06/26 11:38:26;;;;;;;;;;;20.20;85.50;;;;;;5066421;28;19959;-60
2022/06/26 11:40:51;;;;;;;;;;;20.60;83.70;;;;;;5090134;28;19971;-61
2022/06/26 11:43:18;;;;;;;;;;;20.90;80.60;;;;;;5065682;28;19923;-61
2022/06/26 11:45:44;;;;;;;;;;;20.70;80.60;;;;;;5087872;28;19922;-59
2022/06/26 11:48:16;;;;;;;;;;;20.40;82.10;;;;;;5090963;28;19968;-62
2022/06/26 11:50:43;;;;;;;;;;;20.30;83.20;;;;;;5087923;28;19912;-60
2022/06/26 11:53:09;;;;;;;;;;;20.30;83.50;;;;;;5086876;28;19936;-60
2022/06/26 11:55:44;;;;;;;;;;;20.30;84.70;;;;;;5088144;28;19958;-61
2022/06/26 11:58:10;;;;;;;;;;;20.20;82.90;;;;;;5083672;28;20072;-59
2022/06/26 12:00:37;;;;;;;;;;;20.00;84.20;;;;;;5085394;28;20389;-60
2022/06/26 12:03:03;;;;;;;;;;;19.80;85.50;;;;;;5084725;28;19920;-62
2022/06/26 12:05:30;;;;;;;;;;;19.70;86.20;;;;;;5085261;28;19912;-58
2022/06/26 12:07:56;;;;;;;;;;;19.90;85.90;;;;;;5065646;28;19931;-60
2022/06/26 12:10:24;;;;;;;;;;;19.80;86.20;;;;;;5086444;28;20007;-61
2022/06/26 12:12:50;;;;;;;;;;;19.90;86.10;;;;;;5087401;28;19919;-61
2022/06/26 12:15:16;;;;;;;;;;;20.00;86.50;;;;;;5083246;28;20018;-60
2022/06/26 12:17:42;;;;;;;;;;;20.50;89.40;;;;;;5068080;28;19920;-60
2022/06/26 12:20:08;;;;;;;;;;;20.40;84.20;;;;;;5088719;28;20210;-62
2022/06/26 12:22:34;;;;;;;;;;;20.60;83.70;;;;;;5084668;28;20622;-60
2022/06/26 12:25:00;;;;;;;;;;;20.60;83.30;;;;;;5084680;28;20080;-62
2022/06/26 12:27:36;;;;;;;;;;;20.30;84.30;;;;;;5088009;28;19912;-61
2022/06/26 12:30:02;;;;;;;;;;;20.50;84.10;;;;;;5080648;28;19916;-61
2022/06/26 12:32:28;;;;;;;;;;;20.20;83.00;;;;;;5084150;28;20012;-61
2022/06/26 12:34:54;;;;;;;;;;;20.20;84.20;;;;;;5079236;28;19912;-61
2022/06/26 12:37:19;;;;;;;;;;;20.30;84.50;;;;;;5085036;28;20372;-60
2022/06/26 12:39:46;;;;;;;;;;;20.40;83.40;;;;;;5087067;28;19912;-61
2022/06/26 12:42:12;;;;;;;;;;;20.60;83.90;;;;;;5063982;28;19928;-60
2022/06/26 12:44:38;;;;;;;;;;;20.50;81.00;;;;;;5064256;28;19912;-60
2022/06/26 12:47:03;;;;;;;;;;;20.40;80.70;;;;;;5082598;28;19955;-59
2022/06/26 12:49:29;;;;;;;;;;;20.50;80.00;;;;;;5082938;28;20054;-62
2022/06/26 12:51:54;;;;;;;;;;;20.50;81.30;;;;;;5064475;28;19920;-62
2022/06/26 12:54:20;;;;;;;;;;;20.50;81.00;;;;;;5077428;28;19920;-62
2022/06/26 12:56:46;;;;;;;;;;;20.50;81.20;;;;;;5061783;28;19927;-61
2022/06/26 12:59:11;;;;;;;;;;;20.30;81.20;;;;;;5086381;28;19919;-60
2022/06/26 13:01:37;;;;;;;;;;;20.40;82.60;;;;;;5064342;28;19920;-61
2022/06/26 13:04:02;;;;;;;;;;;20.30;81.00;;;;;;5079479;28;19912;-63
2022/06/26 13:06:28;;;;;;;;;;;20.40;80.70;;;;;;5080907;28;19912;-63
2022/06/26 13:08:53;;;;;;;;;;;20.50;80.90;;;;;;5085327;28;19912;-60
2022/06/26 13:11:27;;;;;;;;;;;20.40;79.90;;;;;;5088082;28;19913;-61
2022/06/26 13:13:53;;;;;;;;;;;20.40;79.60;;;;;;5091316;28;19916;-61
2022/06/26 13:16:19;;;;;;;;;;;20.50;80.70;;;;;;5089414;28;20360;-61
2022/06/26 13:18:44;;;;;;;;;;;20.40;80.20;;;;;;5083487;28;20243;-62
2022/06/26 13:21:10;;;;;;;;;;;20.20;81.30;;;;;;5089312;28;20373;-61
2022/06/26 13:23:36;;;;;;;;;;;20.30;80.70;;;;;;5084416;28;20007;-61
2022/06/26 13:26:02;;;;;;;;;;;20.40;79.90;;;;;;5082274;28;19969;-61
2022/06/26 13:28:27;;;;;;;;;;;20.60;81.40;;;;;;5079028;28;19912;-60
2022/06/26 13:30:53;;;;;;;;;;;20.90;82.20;;;;;;5078394;28;20270;-61
2022/06/26 13:33:18;;;;;;;;;;;21.10;77.80;;;;;;5081802;28;19916;-61
2022/06/26 13:35:44;;;;;;;;;;;21.10;80.00;;;;;;5079701;28;19963;-61
2022/06/26 13:38:10;;;;;;;;;;;20.90;78.40;;;;;;5060622;28;20397;-60
2022/06/26 13:40:35;;;;;;;;;;;20.90;79.70;;;;;;5075721;28;19916;-61
2022/06/26 13:43:01;;;;;;;;;;;21.00;79.50;;;;;;5079826;28;19916;-59
2022/06/26 13:45:26;;;;;;;;;;;20.80;75.20;;;;;;5087022;28;19912;-59
2022/06/26 13:47:52;;;;;;;;;;;20.60;76.50;;;;;;5056686;28;20422;-59
2022/06/26 13:50:17;;;;;;;;;;;20.70;76.00;;;;;;5088329;28;20041;-58
2022/06/26 13:52:43;;;;;;;;;;;20.90;78.00;;;;;;5081000;28;20369;-61
2022/06/26 13:55:09;;;;;;;;;;;20.80;77.80;;;;;;5091232;28;19943;-60
2022/06/26 13:57:35;;;;;;;;;;;20.90;78.50;;;;;;5084061;28;19972;-60
2022/06/26 14:00:01;;;;;;;;;;;21.10;77.70;;;;;;5083625;28;19916;-59
2022/06/26 14:02:27;;;;;;;;;;;21.00;78.00;;;;;;5044279;28;19942;-60
2022/06/26 14:04:53;;;;;;;;;;;20.90;75.90;;;;;;5090231;28;20353;-60
2022/06/26 14:07:18;;;;;;;;;;;21.10;77.80;;;;;;5094526;28;19913;-57
2022/06/26 14:09:44;;;;;;;;;;;20.90;75.30;;;;;;5093454;28;20214;-59
2022/06/26 14:12:09;;;;;;;;;;;20.80;76.60;;;;;;5093508;28;20442;-60
2022/06/26 14:14:35;;;;;;;;;;;20.80;76.20;;;;;;5093961;28;19962;-59
2022/06/26 14:17:01;;;;;;;;;;;20.90;76.40;;;;;;5082906;28;19926;-59
2022/06/26 14:19:26;;;;;;;;;;;21.10;75.30;;;;;;5087375;28;19920;-59
2022/06/26 14:27:20;;;;;;;;;;;20.90;74.70;;;;;;5084816;28;19930;-61
2022/06/26 14:29:47;;;;;;;;;;;20.90;73.90;;;;;;5081544;28;20421;-61